createdAt,value
2023-05-01T00:00:18.315Z,10.80
2023-05-01T00:03:11.994Z,11.10
2023-05-01T00:06:02.532Z,8.83
2023-05-01T00:08:51.392Z,8.60
2023-05-01T00:11:40.300Z,10.70
2023-05-01T00:14:30.733Z,14.23
2023-05-01T00:17:19.530Z,10.40
2023-05-01T00:20:10.228Z,10.30
2023-05-01T00:22:59.129Z,13.13
2023-05-01T00:25:47.995Z,9.00
2023-05-01T00:28:36.862Z,9.93
2023-05-01T00:31:27.307Z,13.50
2023-05-01T00:34:16.153Z,9.47
2023-05-01T00:37:05.013Z,15.67
2023-05-01T00:39:54.385Z,9.90
2023-05-01T00:42:43.664Z,11.80
2023-05-01T00:45:32.536Z,11.23
2023-05-01T00:48:23.548Z,12.30
2023-05-01T00:51:15.249Z,12.20
2023-05-01T00:54:04.835Z,11.07
2023-05-01T00:56:54.716Z,12.00
2023-05-01T00:59:44.053Z,11.63
2023-05-01T01:02:33.825Z,10.80
2023-05-01T01:05:29.326Z,14.87
2023-05-01T01:08:31.318Z,12.07
2023-05-01T01:11:34.492Z,12.20
2023-05-01T01:14:33.038Z,10.93
2023-05-01T01:17:33.362Z,15.20
2023-05-01T01:20:41.401Z,11.93
2023-05-01T01:24:04.999Z,11.70
2023-05-01T01:27:18.678Z,11.97
2023-05-01T01:30:56.872Z,13.63
2023-05-01T01:34:05.122Z,12.03
2023-05-01T01:37:03.485Z,12.27
2023-05-01T01:40:02.729Z,13.80
2023-05-01T01:43:00.153Z,13.60
2023-05-01T01:45:55.061Z,13.27
2023-05-01T01:48:50.283Z,13.90
2023-05-01T01:51:43.065Z,11.47
2023-05-01T01:54:39.050Z,16.97
2023-05-01T01:57:31.042Z,13.70
2023-05-01T02:00:22.508Z,15.63
2023-05-01T02:03:15.805Z,13.27
2023-05-01T02:06:09.434Z,12.73
2023-05-01T02:09:00.864Z,15.47
2023-05-01T02:11:51.985Z,14.73
2023-05-01T02:14:46.202Z,16.87
2023-05-01T02:17:39.318Z,22.83
2023-05-01T02:20:29.942Z,13.30
2023-05-01T02:23:20.252Z,16.00
2023-05-01T02:26:17.515Z,15.23
2023-05-01T02:29:07.488Z,11.60
2023-05-01T02:31:56.741Z,18.00
2023-05-01T02:34:46.035Z,15.17
2023-05-01T02:37:35.208Z,17.93
2023-05-01T02:40:28.681Z,15.43
2023-05-01T02:43:23.212Z,18.87
2023-05-01T02:46:15.571Z,15.90
2023-05-01T02:49:06.006Z,26.77
2023-05-01T02:51:57.699Z,16.67
2023-05-01T02:54:47.871Z,19.47
2023-05-01T02:57:38.609Z,20.00
2023-05-01T03:00:27.786Z,17.50
2023-05-01T03:03:17.063Z,15.53
2023-05-01T03:06:06.430Z,16.40
2023-05-01T03:08:57.034Z,15.87
2023-05-01T03:11:46.001Z,17.03
2023-05-01T03:14:36.444Z,17.83
2023-05-01T03:17:25.420Z,22.17
2023-05-01T03:20:14.549Z,15.07
2023-05-01T03:23:03.507Z,19.63
2023-05-01T03:25:54.719Z,18.73
2023-05-01T03:28:44.202Z,19.90
2023-05-01T03:31:34.782Z,21.10
2023-05-01T03:34:24.029Z,18.63
2023-05-01T03:37:13.084Z,22.57
2023-05-01T03:40:02.251Z,21.77
2023-05-01T03:43:09.931Z,21.57
2023-05-01T03:45:59.082Z,16.73
2023-05-01T03:48:49.334Z,16.43
2023-05-01T03:51:38.470Z,24.57
2023-05-01T03:54:27.897Z,15.57
2023-05-01T03:57:25.045Z,18.97
2023-05-01T04:00:15.340Z,18.20
2023-05-01T04:03:04.685Z,20.73
2023-05-01T04:05:57.389Z,18.63
2023-05-01T04:08:46.319Z,25.53
2023-05-01T04:11:35.068Z,22.67
2023-05-01T04:14:23.963Z,22.53
2023-05-01T04:17:13.000Z,20.00
2023-05-01T04:20:01.916Z,19.97
2023-05-01T04:22:53.432Z,19.67
2023-05-01T04:25:42.386Z,26.70
2023-05-01T04:28:35.070Z,19.13
2023-05-01T04:31:24.194Z,21.87
2023-05-01T04:34:13.175Z,25.13
2023-05-01T04:37:04.119Z,20.10
2023-05-01T04:39:55.724Z,23.97
2023-05-01T04:42:46.127Z,22.63
2023-05-01T04:45:36.633Z,22.70
2023-05-01T04:48:26.370Z,27.13
2023-05-01T04:51:15.809Z,20.30
2023-05-01T04:54:05.810Z,22.67
2023-05-01T04:56:58.482Z,27.30
2023-05-01T04:59:48.281Z,18.03
2023-05-01T05:02:37.406Z,22.83
2023-05-01T05:05:26.438Z,25.13
2023-05-01T05:08:16.190Z,19.90
2023-05-01T05:11:12.240Z,18.63
2023-05-01T05:14:22.354Z,22.30
2023-05-01T05:17:13.487Z,20.40
2023-05-01T05:20:02.676Z,20.90
2023-05-01T05:22:52.305Z,22.77
2023-05-01T05:25:46.590Z,21.07
2023-05-01T05:28:35.493Z,19.40
2023-05-01T05:31:25.987Z,19.03
2023-05-01T05:34:15.315Z,21.50
2023-05-01T05:37:04.148Z,19.23
2023-05-01T05:39:54.791Z,21.17
2023-05-01T05:42:44.145Z,21.10
2023-05-01T05:45:36.268Z,18.77
2023-05-01T05:48:28.009Z,21.40
2023-05-01T05:51:17.139Z,22.73
2023-05-01T05:54:06.331Z,19.67
2023-05-01T05:56:57.648Z,20.87
2023-05-01T05:59:47.211Z,21.13
2023-05-01T06:02:38.064Z,18.77
2023-05-01T06:05:29.703Z,22.20
2023-05-01T06:08:18.523Z,21.80
2023-05-01T06:11:07.292Z,24.80
2023-05-01T06:14:02.585Z,21.07
2023-05-01T06:16:51.545Z,20.20
2023-05-01T06:19:41.437Z,21.43
2023-05-01T06:22:33.887Z,19.40
2023-05-01T06:25:31.069Z,20.33
2023-05-01T06:28:21.235Z,21.70
2023-05-01T06:31:12.440Z,22.97
2023-05-01T06:34:07.194Z,23.40
2023-05-01T06:37:16.060Z,24.17
2023-05-01T06:40:08.180Z,21.07
2023-05-01T06:42:59.501Z,23.27
2023-05-01T06:45:51.535Z,19.37
2023-05-01T06:48:40.688Z,20.07
2023-05-01T06:51:30.385Z,17.30
2023-05-01T06:54:19.510Z,20.03
2023-05-01T06:57:09.834Z,20.50
2023-05-01T06:59:59.293Z,20.87
2023-05-01T07:02:48.716Z,21.30
2023-05-01T07:05:40.309Z,20.40
2023-05-01T07:08:31.722Z,21.10
2023-05-01T07:11:21.949Z,19.63
2023-05-01T07:14:12.319Z,20.03
2023-05-01T07:17:01.854Z,23.53
2023-05-01T07:19:51.083Z,26.23
2023-05-01T07:22:40.131Z,16.83
2023-05-01T07:25:29.684Z,19.33
2023-05-01T07:28:21.315Z,15.90
2023-05-01T07:31:12.997Z,15.07
2023-05-01T07:34:02.153Z,15.47
2023-05-01T07:36:51.114Z,14.40
2023-05-01T07:39:40.055Z,13.10
2023-05-01T07:42:29.077Z,9.40
2023-05-01T07:45:18.277Z,12.33
2023-05-01T07:48:10.461Z,11.17
2023-05-01T07:51:03.902Z,10.70
2023-05-01T07:53:53.086Z,12.63
2023-05-01T07:56:42.075Z,11.33
2023-05-01T07:59:31.915Z,10.40
2023-05-01T08:02:20.789Z,19.50
2023-05-01T08:05:11.647Z,11.47
2023-05-01T08:08:01.389Z,10.57
2023-05-01T08:10:52.374Z,13.17
2023-05-01T08:13:41.610Z,12.10
2023-05-01T08:16:31.402Z,14.13
2023-05-01T08:19:20.422Z,11.43
2023-05-01T08:22:11.023Z,13.33
2023-05-01T08:24:59.965Z,13.23
2023-05-01T08:27:50.365Z,10.37
2023-05-01T08:30:39.809Z,12.90
2023-05-01T08:33:29.090Z,12.30
2023-05-01T08:36:19.494Z,9.23
2023-05-01T08:39:11.962Z,10.93
2023-05-01T08:42:01.049Z,9.23
2023-05-01T08:44:52.475Z,11.90
2023-05-01T08:47:43.453Z,14.13
2023-05-01T08:50:35.732Z,10.93
2023-05-01T08:53:26.493Z,10.13
2023-05-01T08:56:18.113Z,9.90
2023-05-01T08:59:10.646Z,10.13
2023-05-01T09:02:05.297Z,14.57
2023-05-01T09:04:55.467Z,10.00
2023-05-01T09:07:46.020Z,24.13
2023-05-01T09:10:40.491Z,13.47
2023-05-01T09:13:31.557Z,9.43
2023-05-01T09:16:21.434Z,12.87
2023-05-01T09:19:11.660Z,13.87
2023-05-01T09:22:03.538Z,9.67
2023-05-01T09:24:53.046Z,9.67
2023-05-01T09:27:42.068Z,8.37
2023-05-01T09:30:37.365Z,11.23
2023-05-01T09:33:27.267Z,11.17
2023-05-01T09:36:18.803Z,9.60
2023-05-01T09:39:08.448Z,8.80
2023-05-01T09:41:57.639Z,8.60
2023-05-01T09:44:46.545Z,11.17
2023-05-01T09:47:37.039Z,9.50
2023-05-01T09:50:36.314Z,11.53
2023-05-01T09:53:39.472Z,10.30
2023-05-01T09:56:31.418Z,9.50
2023-05-01T09:59:22.424Z,9.93
2023-05-01T10:02:30.794Z,11.47
2023-05-01T10:05:22.975Z,10.27
2023-05-01T10:08:14.914Z,12.07
2023-05-01T10:11:08.198Z,10.13
2023-05-01T10:14:11.104Z,8.53
2023-05-01T10:17:00.069Z,9.90
2023-05-01T10:19:49.325Z,9.00
2023-05-01T10:22:40.815Z,9.77
2023-05-01T10:25:37.511Z,8.43
2023-05-01T10:28:28.800Z,9.00
2023-05-01T10:31:18.050Z,9.77
2023-05-01T10:34:07.792Z,7.67
2023-05-01T10:37:07.639Z,8.53
2023-05-01T10:39:58.349Z,8.73
2023-05-01T10:43:17.545Z,10.00
2023-05-01T10:46:30.959Z,10.43
2023-05-01T10:49:30.807Z,8.70
2023-05-01T10:52:19.727Z,8.40
2023-05-01T10:55:36.152Z,10.63
2023-05-01T10:58:58.937Z,9.97
2023-05-01T11:01:51.795Z,12.17
2023-05-01T11:04:54.297Z,9.10
2023-05-01T11:07:43.416Z,11.43
2023-05-01T11:10:35.521Z,9.80
2023-05-01T11:13:58.007Z,9.70
2023-05-01T11:16:49.064Z,9.87
2023-05-01T11:19:52.442Z,10.80
2023-05-01T11:22:47.385Z,11.33
2023-05-01T11:25:38.150Z,9.07
2023-05-01T11:28:27.322Z,11.17
2023-05-01T11:31:19.720Z,9.70
2023-05-01T11:34:09.291Z,9.47
2023-05-01T11:36:58.116Z,10.13
2023-05-01T11:39:53.837Z,9.47
2023-05-01T11:42:44.029Z,10.23
2023-05-01T11:45:34.587Z,8.90
2023-05-01T11:48:24.277Z,9.77
2023-05-01T11:51:14.848Z,9.43
2023-05-01T11:54:06.992Z,11.70
2023-05-01T11:57:00.895Z,9.47
2023-05-01T11:59:51.720Z,16.10
2023-05-01T12:02:40.736Z,9.70
2023-05-01T12:05:32.121Z,11.00
2023-05-01T12:08:23.751Z,9.60
2023-05-01T12:11:13.281Z,19.53
2023-05-01T12:14:02.836Z,8.43
2023-05-01T12:16:53.568Z,10.87
2023-05-01T12:19:49.887Z,11.03
2023-05-01T12:22:51.748Z,7.70
2023-05-01T12:25:47.204Z,11.50
2023-05-01T12:28:37.282Z,10.37
2023-05-01T12:31:30.878Z,14.20
2023-05-01T12:34:32.800Z,10.13
2023-05-01T12:37:32.779Z,10.57
2023-05-01T12:40:22.894Z,12.93
2023-05-01T12:43:14.603Z,12.00
2023-05-01T12:46:05.797Z,12.40
2023-05-01T12:48:57.881Z,16.40
2023-05-01T12:51:52.421Z,8.20
2023-05-01T12:54:45.304Z,9.70
2023-05-01T12:57:34.287Z,10.03
2023-05-01T13:00:23.666Z,8.30
2023-05-01T13:03:18.483Z,10.50
2023-05-01T13:06:08.706Z,9.63
2023-05-01T13:09:10.494Z,10.63
2023-05-01T13:12:02.590Z,11.27
2023-05-01T13:14:54.618Z,10.80
2023-05-01T13:17:43.585Z,10.37
2023-05-01T13:20:33.154Z,8.20
2023-05-01T13:23:25.916Z,9.43
2023-05-01T13:26:19.482Z,8.63
2023-05-01T13:29:15.285Z,10.60
2023-05-01T13:32:11.360Z,11.03
2023-05-01T13:35:02.898Z,10.47
2023-05-01T13:37:52.862Z,12.17
2023-05-01T13:40:42.224Z,11.80
2023-05-01T13:43:36.080Z,8.87
2023-05-01T13:46:27.638Z,9.13
2023-05-01T13:49:23.115Z,9.53
2023-05-01T13:52:13.492Z,10.73
2023-05-01T13:55:05.906Z,9.20
2023-05-01T13:57:55.526Z,10.93
2023-05-01T14:01:41.475Z,11.07
2023-05-01T14:04:30.632Z,11.50
2023-05-01T14:07:21.531Z,9.17
2023-05-01T14:10:12.720Z,11.43
2023-05-01T14:13:03.881Z,12.27
2023-05-01T14:15:53.163Z,9.40
2023-05-01T14:18:48.462Z,11.07
2023-05-01T14:21:43.217Z,15.00
2023-05-01T14:24:34.554Z,11.60
2023-05-01T14:27:23.943Z,12.93
2023-05-01T14:30:29.754Z,12.37
2023-05-01T14:33:18.767Z,11.10
2023-05-01T14:36:09.090Z,12.27
2023-05-01T14:38:59.236Z,12.60
2023-05-01T14:42:00.092Z,11.37
2023-05-01T14:44:51.424Z,14.80
2023-05-01T14:47:45.120Z,14.30
2023-05-01T14:50:39.161Z,11.10
2023-05-01T14:53:34.864Z,11.70
2023-05-01T14:56:24.011Z,14.53
2023-05-01T14:59:17.195Z,13.40
2023-05-01T15:02:09.263Z,15.50
2023-05-01T15:04:59.317Z,13.60
2023-05-01T15:07:48.638Z,12.30
2023-05-01T15:10:42.794Z,13.53
2023-05-01T15:13:34.766Z,15.07
2023-05-01T15:16:24.367Z,15.93
2023-05-01T15:19:16.040Z,14.87
2023-05-01T15:22:06.144Z,16.40
2023-05-01T15:24:58.796Z,15.80
2023-05-01T15:27:50.425Z,13.20
2023-05-01T15:30:46.663Z,12.53
2023-05-01T15:33:35.758Z,16.80
2023-05-01T15:36:24.807Z,12.77
2023-05-01T15:39:13.978Z,14.30
2023-05-01T15:42:03.827Z,18.30
2023-05-01T15:44:54.072Z,13.10
2023-05-01T15:47:43.149Z,16.70
2023-05-01T15:50:32.518Z,13.63
2023-05-01T15:53:21.522Z,13.57
2023-05-01T15:56:10.714Z,14.03
2023-05-01T15:59:04.053Z,15.13
2023-05-01T16:01:55.867Z,15.00
2023-05-01T16:04:47.814Z,14.17
2023-05-01T16:07:37.030Z,15.97
2023-05-01T16:10:26.024Z,13.73
2023-05-01T16:13:15.407Z,12.77
2023-05-01T16:16:04.570Z,12.53
2023-05-01T16:18:57.647Z,14.33
2023-05-01T16:21:48.584Z,14.40
2023-05-01T16:24:37.578Z,15.17
2023-05-01T16:27:26.577Z,18.33
2023-05-01T16:30:16.908Z,14.13
2023-05-01T16:33:19.249Z,13.90
2023-05-01T16:36:13.216Z,15.60
2023-05-01T16:39:02.103Z,14.67
2023-05-01T16:41:53.515Z,19.43
2023-05-01T16:44:45.926Z,16.03
2023-05-01T16:47:35.249Z,13.70
2023-05-01T16:50:24.277Z,13.20
2023-05-01T16:53:15.308Z,15.13
2023-05-01T16:56:06.468Z,15.10
2023-05-01T16:58:55.503Z,14.03
2023-05-01T17:01:44.537Z,15.97
2023-05-01T17:04:33.686Z,16.17
2023-05-01T17:07:24.856Z,13.70
2023-05-01T17:10:15.111Z,13.77
2023-05-01T17:13:04.017Z,16.40
2023-05-01T17:15:57.294Z,11.67
2023-05-01T17:18:46.435Z,11.73
2023-05-01T17:21:35.471Z,11.10
2023-05-01T17:24:24.506Z,16.80
2023-05-01T17:27:15.584Z,13.20
2023-05-01T17:30:05.585Z,12.93
2023-05-01T17:37:47.503Z,11.90
2023-05-01T17:40:36.885Z,12.50
2023-05-01T17:43:27.574Z,12.37
2023-05-01T17:46:18.512Z,11.43
2023-05-01T17:49:07.649Z,18.23
2023-05-01T17:51:56.726Z,13.77
2023-05-01T17:54:45.649Z,11.00
2023-05-01T17:57:35.326Z,14.07
2023-05-01T18:00:27.586Z,14.97
2023-05-01T18:03:18.002Z,16.30
2023-05-01T18:06:07.729Z,12.80
2023-05-01T18:08:56.922Z,14.00
2023-05-01T18:11:46.169Z,15.80
2023-05-01T18:14:36.106Z,14.13
2023-05-01T18:17:28.167Z,13.90
2023-05-01T18:20:17.455Z,16.67
2023-05-01T18:23:07.013Z,18.53
2023-05-01T18:25:56.779Z,14.53
2023-05-01T18:28:45.787Z,16.47
2023-05-01T18:31:37.935Z,13.83
2023-05-01T18:34:28.307Z,18.17
2023-05-01T18:37:19.122Z,21.93
2023-05-01T18:40:18.002Z,22.37
2023-05-01T18:43:12.207Z,16.63
2023-05-01T18:46:01.092Z,17.23
2023-05-01T18:48:50.080Z,16.00
2023-05-01T18:51:42.388Z,20.30
2023-05-01T18:54:31.458Z,17.67
2023-05-01T18:57:20.421Z,21.90
2023-05-01T19:00:11.320Z,20.97
2023-05-01T19:03:00.899Z,23.33
2023-05-01T19:05:49.925Z,23.37
2023-05-01T19:08:40.995Z,24.80
2023-05-01T19:11:31.908Z,23.50
2023-05-01T19:14:22.620Z,23.07
2023-05-01T19:17:14.278Z,24.20
2023-05-01T19:20:04.746Z,23.53
2023-05-01T19:22:53.860Z,22.97
2023-05-01T19:25:47.029Z,26.80
2023-05-01T19:28:38.599Z,24.87
2023-05-01T19:31:27.706Z,28.40
2023-05-01T19:34:17.023Z,22.13
2023-05-01T19:37:06.005Z,26.80
2023-05-01T19:39:56.937Z,24.93
2023-05-01T19:42:49.253Z,24.20
2023-05-01T19:45:39.057Z,25.10
2023-05-01T19:48:29.324Z,24.00
2023-05-01T19:51:18.408Z,26.40
2023-05-01T19:54:08.866Z,26.60
2023-05-01T19:56:58.499Z,22.50
2023-05-01T19:59:49.423Z,26.87
2023-05-01T20:02:38.521Z,27.80
2023-05-01T20:05:31.217Z,24.50
2023-05-01T20:08:22.090Z,21.87
2023-05-01T20:11:12.447Z,24.13
2023-05-01T20:14:03.386Z,25.40
2023-05-01T20:16:53.890Z,29.00
2023-05-01T20:19:42.795Z,23.07
2023-05-01T20:22:32.015Z,25.97
2023-05-01T20:25:21.075Z,24.40
2023-05-01T20:28:17.093Z,25.90
2023-05-01T20:31:06.231Z,25.67
2023-05-01T20:33:56.651Z,29.47
2023-05-01T20:36:45.557Z,28.03
2023-05-01T20:39:34.434Z,28.00
2023-05-01T20:42:23.780Z,30.50
2023-05-01T20:45:15.105Z,29.10
2023-05-01T20:48:05.117Z,27.87
2023-05-01T20:50:55.423Z,26.67
2023-05-01T20:53:44.413Z,29.10
2023-05-01T20:56:36.540Z,29.60
2023-05-01T20:59:28.240Z,32.93
2023-05-01T21:02:25.570Z,28.03
2023-05-01T21:05:14.512Z,26.80
2023-05-01T21:08:05.160Z,30.67
2023-05-01T21:10:54.392Z,27.93
2023-05-01T21:13:43.343Z,34.67
2023-05-01T21:16:34.497Z,27.00
2023-05-01T21:19:24.328Z,29.60
2023-05-01T21:22:17.558Z,29.10
2023-05-01T21:25:09.971Z,34.00
2023-05-01T21:28:02.008Z,28.10
2023-05-01T21:30:51.853Z,31.37
2023-05-01T21:33:41.229Z,27.60
2023-05-01T21:36:33.131Z,31.70
2023-05-01T21:39:24.508Z,37.93
2023-05-01T21:42:16.172Z,32.10
2023-05-01T21:45:10.453Z,37.70
2023-05-01T21:47:59.668Z,33.47
2023-05-01T21:50:52.961Z,37.20
2023-05-01T21:53:43.102Z,36.47
2023-05-01T21:56:32.686Z,30.57
2023-05-01T21:59:22.991Z,35.47
2023-05-01T22:02:13.129Z,36.50
2023-05-01T22:05:02.060Z,38.60
2023-05-01T22:07:54.213Z,34.83
2023-05-01T22:10:45.357Z,34.60
2023-05-01T22:13:34.306Z,36.60
2023-05-01T22:16:24.673Z,38.53
2023-05-01T22:19:13.523Z,39.00
2023-05-01T22:22:02.458Z,36.50
2023-05-01T22:24:51.396Z,34.97
2023-05-01T22:27:40.713Z,32.23
2023-05-01T22:30:29.780Z,37.10
2023-05-01T22:33:19.930Z,34.00
2023-05-01T22:36:08.865Z,33.23
2023-05-01T22:38:57.749Z,37.10
2023-05-01T22:41:47.044Z,39.33
2023-05-01T22:44:35.939Z,33.00
2023-05-01T22:47:24.916Z,35.97
2023-05-01T22:50:15.169Z,40.73
2023-05-01T22:53:03.986Z,33.17
2023-05-01T22:55:52.937Z,36.27
2023-05-01T22:58:42.854Z,35.40
2023-05-01T23:01:31.690Z,34.93
2023-05-01T23:04:20.618Z,38.27
2023-05-01T23:07:11.360Z,39.63
2023-05-01T23:10:02.218Z,39.23
2023-05-01T23:12:51.169Z,38.50
2023-05-01T23:15:47.708Z,40.20
2023-05-01T23:18:41.065Z,39.10
2023-05-01T23:21:29.907Z,38.43
2023-05-01T23:24:22.133Z,40.43
2023-05-01T23:27:13.467Z,45.47
2023-05-01T23:30:02.645Z,39.10
2023-05-01T23:32:51.976Z,50.60
2023-05-01T23:35:40.791Z,40.77
2023-05-01T23:38:30.346Z,39.33
2023-05-01T23:41:21.192Z,45.07
2023-05-01T23:44:10.706Z,44.80
2023-05-01T23:47:00.337Z,43.07
2023-05-01T23:49:49.888Z,48.63
2023-05-01T23:52:39.226Z,46.17
2023-05-01T23:55:28.173Z,44.57
2023-05-01T23:58:18.344Z,45.70
